createdAt,value
2022-11-27T00:01:30.159Z,99737.06
2022-11-27T00:04:04.097Z,99746.69
2022-11-27T00:06:40.879Z,99737.81
2022-11-27T00:09:10.734Z,99739.34
2022-11-27T00:11:41.065Z,99720.94
2022-11-27T00:14:16.289Z,99713.97
2022-11-27T00:16:45.506Z,99710.97
2022-11-27T00:19:12.566Z,99707.13
2022-11-27T00:21:39.104Z,99702.69
2022-11-27T00:24:10.163Z,99707.56
2022-11-27T00:26:38.335Z,99706.28
2022-11-27T00:29:05.784Z,99708.84
2022-11-27T00:31:34.481Z,99709.88
2022-11-27T00:34:03.861Z,99708.25
2022-11-27T00:36:32.985Z,99698.63
2022-11-27T00:39:00.403Z,99691.53
2022-11-27T00:41:29.296Z,99693.13
2022-11-27T00:43:56.513Z,99694.72
2022-11-27T00:46:29.309Z,99690.41
2022-11-27T00:48:57.811Z,99691.13
2022-11-27T00:51:24.786Z,99685.56
2022-11-27T00:53:52.160Z,99692.09
2022-11-27T00:56:30.326Z,99686.16
2022-11-27T00:58:57.307Z,99679.69
2022-11-27T01:01:32.315Z,99682.34
2022-11-27T01:04:00.657Z,99675.13
2022-11-27T01:06:28.397Z,99677.63
2022-11-27T01:08:55.016Z,99674.88
2022-11-27T01:11:27.937Z,99671.34
2022-11-27T01:13:57.669Z,99673.28
2022-11-27T01:16:26.425Z,99666.81
2022-11-27T01:18:59.634Z,99669.34
2022-11-27T01:21:29.011Z,99664.38
2022-11-27T01:23:55.790Z,99660.66
2022-11-27T01:26:22.632Z,99653.75
2022-11-27T01:28:53.137Z,99660.94
2022-11-27T01:31:26.662Z,99657.06
2022-11-27T01:34:00.062Z,99658.91
2022-11-27T01:36:27.483Z,99652.94
2022-11-27T01:38:54.231Z,99653.34
2022-11-27T01:41:27.504Z,99656.09
2022-11-27T01:44:14.911Z,99652.53
2022-11-27T01:46:49.717Z,99651.13
2022-11-27T01:49:28.085Z,99641.19
2022-11-27T01:52:15.181Z,99655.69
2022-11-27T01:54:50.133Z,99659.81
2022-11-27T01:57:21.396Z,99666.72
2022-11-27T01:59:49.576Z,99675.91
2022-11-27T02:02:16.149Z,99665.59
2022-11-27T02:04:43.026Z,99669.03
2022-11-27T02:07:09.744Z,99667.78
2022-11-27T02:09:36.362Z,99657.81
2022-11-27T02:12:14.761Z,99657.84
2022-11-27T02:15:12.897Z,99649.28
2022-11-27T02:17:50.307Z,99644.44
2022-11-27T02:20:19.597Z,99642.53
2022-11-27T02:22:57.129Z,99637.63
2022-11-27T02:26:01.990Z,99636.56
2022-11-27T02:28:59.791Z,99628.34
2022-11-27T02:31:50.817Z,99629.25
2022-11-27T02:34:25.868Z,99623.19
2022-11-27T02:37:03.223Z,99626.91
2022-11-27T02:39:44.557Z,99622.41
2022-11-27T02:42:20.935Z,99627.38
2022-11-27T02:45:00.153Z,99615.84
2022-11-27T02:47:28.183Z,99629.44
2022-11-27T02:49:57.015Z,99628.81
2022-11-27T02:52:26.283Z,99625.47
2022-11-27T02:54:57.348Z,99623.94
2022-11-27T02:57:25.994Z,99608.84
2022-11-27T02:59:56.002Z,99612.94
2022-11-27T03:02:30.091Z,99602.25
2022-11-27T03:04:58.706Z,99611.78
2022-11-27T03:07:40.345Z,99605.25
2022-11-27T03:10:19.173Z,99603.19
2022-11-27T03:12:48.622Z,99607.81
2022-11-27T03:15:15.630Z,99608.50
2022-11-27T03:18:26.740Z,99607.63
2022-11-27T03:21:04.234Z,99600.63
2022-11-27T03:23:30.666Z,99595.34
2022-11-27T03:25:57.114Z,99594.59
2022-11-27T03:28:24.190Z,99590.06
2022-11-27T03:30:50.703Z,99591.19
2022-11-27T03:33:18.332Z,99595.53
2022-11-27T03:35:44.762Z,99587.31
2022-11-27T03:38:11.275Z,99584.59
2022-11-27T03:41:09.948Z,99577.47
2022-11-27T03:43:49.852Z,99570.75
2022-11-27T03:46:27.822Z,99564.34
2022-11-27T03:49:10.900Z,99556.16
2022-11-27T03:51:50.714Z,99561.41
2022-11-27T03:54:17.072Z,99554.34
2022-11-27T03:56:52.330Z,99548.00
2022-11-27T03:59:36.269Z,99555.47
2022-11-27T04:02:02.815Z,99556.97
2022-11-27T04:04:29.250Z,99561.97
2022-11-27T04:06:55.709Z,99554.25
2022-11-27T04:09:22.089Z,99550.22
2022-11-27T04:11:48.514Z,99548.13
2022-11-27T04:14:15.040Z,99543.91
2022-11-27T04:16:41.543Z,99544.19
2022-11-27T04:19:09.294Z,99549.69
2022-11-27T04:21:35.717Z,99539.47
2022-11-27T04:24:02.149Z,99551.00
2022-11-27T04:26:28.591Z,99546.25
2022-11-27T04:28:55.083Z,99541.84
2022-11-27T04:31:21.583Z,99534.09
2022-11-27T04:33:48.098Z,99538.00
2022-11-27T04:36:14.526Z,99537.31
2022-11-27T04:38:40.948Z,99527.63
2022-11-27T04:41:07.486Z,99529.16
2022-11-27T04:43:33.907Z,99532.06
2022-11-27T04:46:00.372Z,99526.44
2022-11-27T04:48:26.830Z,99529.91
2022-11-27T04:50:55.230Z,99537.91
2022-11-27T04:53:21.684Z,99527.34
2022-11-27T04:55:48.100Z,99524.22
2022-11-27T04:58:14.490Z,99532.94
2022-11-27T05:00:40.933Z,99531.28
2022-11-27T05:03:07.978Z,99526.50
2022-11-27T05:05:34.522Z,99529.59
2022-11-27T05:08:01.003Z,99531.19
2022-11-27T05:10:27.545Z,99525.41
2022-11-27T05:12:54.002Z,99530.09
2022-11-27T05:15:20.389Z,99524.53
2022-11-27T05:17:46.825Z,99520.75
2022-11-27T05:20:13.334Z,99520.66
2022-11-27T05:22:39.817Z,99502.47
2022-11-27T05:25:06.694Z,99509.44
2022-11-27T05:27:33.346Z,99505.69
2022-11-27T05:29:59.849Z,99502.63
2022-11-27T05:32:26.265Z,99496.38
2022-11-27T05:34:52.760Z,99504.63
2022-11-27T05:37:19.899Z,99494.25
2022-11-27T05:39:46.828Z,99507.41
2022-11-27T05:42:13.204Z,99502.53
2022-11-27T05:44:39.805Z,99508.09
2022-11-27T05:47:06.493Z,99513.13
2022-11-27T05:49:33.117Z,99517.31
2022-11-27T05:51:59.603Z,99509.44
2022-11-27T05:54:26.107Z,99513.22
2022-11-27T05:56:52.514Z,99502.28
2022-11-27T05:59:18.966Z,99497.84
2022-11-27T06:01:45.492Z,99478.19
2022-11-27T06:04:11.981Z,99472.50
2022-11-27T06:06:38.495Z,99488.22
2022-11-27T06:09:10.917Z,99476.31
2022-11-27T06:11:39.197Z,99469.09
2022-11-27T06:14:09.317Z,99467.56
2022-11-27T06:16:36.325Z,99469.31
2022-11-27T06:19:03.282Z,99470.88
2022-11-27T06:21:29.687Z,99463.69
2022-11-27T06:23:56.810Z,99458.22
2022-11-27T06:26:28.599Z,99462.38
2022-11-27T06:28:56.299Z,99464.13
2022-11-27T06:31:26.449Z,99466.09
2022-11-27T06:33:55.401Z,99466.38
2022-11-27T06:36:23.853Z,99449.31
2022-11-27T06:38:50.271Z,99448.06
2022-11-27T06:41:19.627Z,99454.50
2022-11-27T06:43:46.496Z,99450.94
2022-11-27T06:46:18.072Z,99445.31
2022-11-27T06:48:46.822Z,99429.66
2022-11-27T06:51:16.563Z,99425.22
2022-11-27T06:53:43.575Z,99439.72
2022-11-27T06:56:12.931Z,99438.59
2022-11-27T06:58:40.036Z,99440.47
2022-11-27T07:01:09.374Z,99435.19
2022-11-27T07:03:36.353Z,99422.53
2022-11-27T07:06:05.345Z,99418.06
2022-11-27T07:08:32.830Z,99411.94
2022-11-27T07:11:06.026Z,99406.91
2022-11-27T07:13:32.965Z,99398.84
2022-11-27T07:16:08.684Z,99392.88
2022-11-27T07:18:40.764Z,99395.81
2022-11-27T07:21:07.593Z,99393.34
2022-11-27T07:23:35.155Z,99392.41
2022-11-27T07:26:13.502Z,99397.25
2022-11-27T07:28:43.625Z,99398.47
2022-11-27T07:31:11.439Z,99410.72
2022-11-27T07:33:38.262Z,99417.06
2022-11-27T07:36:08.319Z,99413.78
2022-11-27T07:38:34.999Z,99423.22
2022-11-27T07:41:02.805Z,99421.63
2022-11-27T07:43:29.916Z,99420.97
2022-11-27T07:45:56.850Z,99422.56
2022-11-27T07:48:23.377Z,99421.97
2022-11-27T07:50:49.957Z,99412.84
2022-11-27T07:53:16.531Z,99396.41
2022-11-27T07:55:42.980Z,99388.53
2022-11-27T07:58:09.604Z,99393.44
2022-11-27T08:00:36.434Z,99380.19
2022-11-27T08:03:03.635Z,99368.31
2022-11-27T08:05:30.319Z,99373.59
2022-11-27T08:08:00.767Z,99373.94
2022-11-27T08:10:27.600Z,99365.69
2022-11-27T08:12:54.049Z,99367.25
2022-11-27T08:15:20.517Z,99347.91
2022-11-27T08:17:47.796Z,99345.56
2022-11-27T08:20:14.238Z,99345.78
2022-11-27T08:22:40.791Z,99351.81
2022-11-27T08:25:07.687Z,99349.38
2022-11-27T08:27:34.241Z,99354.81
2022-11-27T08:30:00.784Z,99357.81
2022-11-27T08:32:27.231Z,99355.66
2022-11-27T08:34:53.597Z,99360.56
2022-11-27T08:37:20.039Z,99352.94
2022-11-27T08:39:46.486Z,99349.19
2022-11-27T08:42:14.377Z,99348.22
2022-11-27T08:44:40.971Z,99346.66
2022-11-27T08:47:07.644Z,99341.00
2022-11-27T08:49:34.121Z,99345.09
2022-11-27T08:52:00.550Z,99346.91
2022-11-27T08:54:27.077Z,99350.25
2022-11-27T08:56:53.584Z,99350.22
2022-11-27T08:59:20.022Z,99349.88
2022-11-27T09:01:46.697Z,99339.44
2022-11-27T09:04:13.350Z,99340.13
2022-11-27T09:06:41.101Z,99336.59
2022-11-27T09:09:07.567Z,99324.94
2022-11-27T09:11:35.293Z,99335.41
2022-11-27T09:14:03.273Z,99337.34
2022-11-27T09:16:30.749Z,99333.59
2022-11-27T09:18:58.267Z,99330.38
2022-11-27T09:21:30.470Z,99351.16
2022-11-27T09:24:01.673Z,99343.56
2022-11-27T09:26:29.376Z,99341.19
2022-11-27T09:28:58.224Z,99342.41
2022-11-27T09:31:25.891Z,99332.91
2022-11-27T09:33:52.737Z,99321.63
2022-11-27T09:36:22.086Z,99333.06
2022-11-27T09:38:49.164Z,99325.59
2022-11-27T09:41:39.040Z,99321.22
2022-11-27T09:44:10.704Z,99317.25
2022-11-27T09:46:41.171Z,99323.16
2022-11-27T09:49:13.673Z,99319.28
2022-11-27T09:52:03.158Z,99314.00
2022-11-27T09:54:35.434Z,99311.25
2022-11-27T09:57:03.833Z,99305.31
2022-11-27T09:59:43.430Z,99305.44
2022-11-27T10:02:31.430Z,99306.66
2022-11-27T10:05:15.463Z,99305.53
2022-11-27T10:08:27.491Z,99297.19
2022-11-27T10:11:01.578Z,99297.66
2022-11-27T10:13:42.802Z,99292.03
2022-11-27T10:16:20.705Z,99287.41
2022-11-27T10:18:52.735Z,99285.16
2022-11-27T10:21:35.381Z,99277.31
2022-11-27T10:24:40.911Z,99271.50
2022-11-27T10:27:21.347Z,99267.34
2022-11-27T10:29:55.854Z,99260.47
2022-11-27T10:32:54.091Z,99258.06
2022-11-27T10:35:14.352Z,99245.28
2022-11-27T10:37:49.110Z,99234.16
2022-11-27T10:40:20.242Z,99240.34
2022-11-27T10:42:51.359Z,99228.00
2022-11-27T10:45:36.877Z,99227.50
2022-11-27T10:48:03.995Z,99219.81
2022-11-27T10:50:30.512Z,99210.69
2022-11-27T10:53:00.197Z,99209.50
2022-11-27T10:55:45.740Z,99207.03
2022-11-27T10:58:36.586Z,99201.16
2022-11-27T11:01:12.496Z,99204.56
2022-11-27T11:03:39.212Z,99198.50
2022-11-27T11:06:26.849Z,99199.75
2022-11-27T11:09:23.310Z,99191.63
2022-11-27T11:11:50.145Z,99181.16
2022-11-27T11:14:22.915Z,99171.34
2022-11-27T11:16:50.452Z,99174.63
2022-11-27T11:19:35.711Z,99176.28
2022-11-27T11:22:14.751Z,99168.84
2022-11-27T11:24:46.653Z,99157.44
2022-11-27T11:27:29.292Z,99139.09
2022-11-27T11:29:59.885Z,99142.97
2022-11-27T11:32:32.948Z,99130.88
2022-11-27T11:35:03.544Z,99141.66
2022-11-27T11:37:39.994Z,99136.94
2022-11-27T11:40:11.964Z,99149.25
2022-11-27T11:42:57.470Z,99150.69
2022-11-27T11:45:27.512Z,99144.13
2022-11-27T11:48:02.511Z,99136.28
2022-11-27T11:50:44.224Z,99130.78
2022-11-27T11:53:28.719Z,99138.81
2022-11-27T11:56:10.394Z,99146.63
2022-11-27T11:58:54.991Z,99158.66
2022-11-27T12:01:43.477Z,99150.06
2022-11-27T12:04:31.777Z,99157.72
2022-11-27T12:07:36.775Z,99160.47
2022-11-27T12:10:09.086Z,99153.97
2022-11-27T12:12:55.411Z,99146.38
2022-11-27T12:15:51.374Z,99140.50
2022-11-27T12:18:45.689Z,99147.19
2022-11-27T12:21:12.102Z,99130.97
2022-11-27T12:24:01.603Z,99120.03
2022-11-27T12:26:51.959Z,99113.03
2022-11-27T12:29:39.864Z,99108.72
2022-11-27T12:32:36.533Z,99111.13
2022-11-27T12:35:16.120Z,99101.97
2022-11-27T12:38:01.241Z,99097.13
2022-11-27T12:40:48.068Z,99084.78
2022-11-27T12:43:20.521Z,99083.38
2022-11-27T12:46:30.503Z,99084.09
2022-11-27T12:49:04.628Z,99072.63
2022-11-27T12:51:39.585Z,99057.72
2022-11-27T12:54:21.556Z,99054.47
2022-11-27T12:56:54.812Z,99051.78
2022-11-27T12:59:27.202Z,99046.22
2022-11-27T13:02:23.674Z,99046.72
2022-11-27T13:04:53.070Z,99035.44
2022-11-27T13:07:54.851Z,99037.97
2022-11-27T13:10:32.714Z,99029.66
2022-11-27T13:13:11.577Z,99025.31
2022-11-27T13:16:07.303Z,99020.50
2022-11-27T13:18:37.244Z,99027.38
2022-11-27T13:21:08.457Z,99038.47
2022-11-27T13:23:35.289Z,99027.22
2022-11-27T13:26:06.602Z,99020.56
2022-11-27T13:28:47.534Z,99026.69
2022-11-27T13:31:25.774Z,99030.47
2022-11-27T13:34:02.952Z,99021.63
2022-11-27T13:36:38.154Z,99015.44
2022-11-27T13:39:05.974Z,99016.41
2022-11-27T13:41:40.732Z,99010.34
2022-11-27T13:44:28.732Z,99010.38
2022-11-27T13:46:59.899Z,99000.41
2022-11-27T13:49:29.170Z,99000.03
2022-11-27T13:52:12.847Z,99008.28
2022-11-27T13:54:40.279Z,99016.13
2022-11-27T13:57:17.252Z,99018.22
2022-11-27T13:59:59.357Z,99009.69
2022-11-27T14:02:39.103Z,99017.31
2022-11-27T14:05:05.853Z,98993.81
2022-11-27T14:07:57.599Z,98988.75
2022-11-27T14:10:28.584Z,98964.88
2022-11-27T14:13:00.944Z,98968.38
2022-11-27T14:15:29.862Z,98958.34
2022-11-27T14:18:19.859Z,98933.78
2022-11-27T14:20:52.421Z,98931.84
2022-11-27T14:23:29.292Z,98919.56
2022-11-27T14:26:21.395Z,98904.91
2022-11-27T14:28:58.360Z,98895.25
2022-11-27T14:31:33.805Z,98878.88
2022-11-27T14:34:23.140Z,98879.38
2022-11-27T14:36:52.837Z,98871.44
2022-11-27T14:39:27.803Z,98872.50
2022-11-27T14:42:08.243Z,98870.72
2022-11-27T14:44:35.217Z,98879.41
2022-11-27T14:47:05.709Z,98898.44
2022-11-27T14:49:33.828Z,98896.84
2022-11-27T14:52:04.377Z,98895.88
2022-11-27T14:54:34.505Z,98905.88
2022-11-27T14:57:01.819Z,98901.47
2022-11-27T14:59:28.285Z,98907.75
2022-11-27T15:02:00.854Z,98908.22
2022-11-27T15:04:34.901Z,98907.28
2022-11-27T15:07:05.594Z,98905.41
2022-11-27T15:09:34.906Z,98888.53
2022-11-27T15:12:15.090Z,98890.13
2022-11-27T15:15:05.726Z,98875.50
2022-11-27T15:17:35.212Z,98873.56
2022-11-27T15:20:04.161Z,98873.22
2022-11-27T15:22:33.357Z,98877.09
2022-11-27T15:25:02.306Z,98878.78
2022-11-27T15:27:33.542Z,98883.16
2022-11-27T15:30:09.842Z,98867.53
2022-11-27T15:32:53.588Z,98883.22
2022-11-27T15:35:29.037Z,98883.28
2022-11-27T15:38:05.433Z,98881.94
2022-11-27T15:40:40.749Z,98878.09
2022-11-27T15:43:14.832Z,98872.44
2022-11-27T15:45:43.379Z,98866.00
2022-11-27T15:48:15.856Z,98871.97
2022-11-27T15:50:46.849Z,98867.13
2022-11-27T15:53:17.814Z,98873.34
2022-11-27T15:55:44.264Z,98866.28
2022-11-27T15:58:10.812Z,98845.66
2022-11-27T16:00:37.427Z,98847.28
2022-11-27T16:03:03.873Z,98837.53
2022-11-27T16:05:30.421Z,98855.47
2022-11-27T16:07:57.531Z,98844.69
2022-11-27T16:10:24.156Z,98846.13
2022-11-27T16:12:54.947Z,98862.06
2022-11-27T16:15:23.262Z,98864.50
2022-11-27T16:17:50.521Z,98858.81
2022-11-27T16:20:17.123Z,98827.78
2022-11-27T16:22:43.586Z,98816.47
2022-11-27T16:25:10.080Z,98834.25
2022-11-27T16:27:36.632Z,98823.44
2022-11-27T16:30:03.462Z,98828.88
2022-11-27T16:32:29.906Z,98845.81
2022-11-27T16:34:56.304Z,98837.28
2022-11-27T16:37:23.292Z,98832.81
2022-11-27T16:39:49.821Z,98821.56
2022-11-27T16:42:16.309Z,98830.66
2022-11-27T16:44:44.396Z,98832.59
2022-11-27T16:47:11.686Z,98822.97
2022-11-27T16:49:38.181Z,98819.25
2022-11-27T16:52:04.720Z,98829.34
2022-11-27T16:54:31.174Z,98826.50
2022-11-27T16:56:57.618Z,98816.97
2022-11-27T16:59:24.163Z,98819.41
2022-11-27T17:01:50.738Z,98827.16
2022-11-27T17:04:19.520Z,98820.09
2022-11-27T17:06:47.651Z,98823.44
2022-11-27T17:09:15.223Z,98818.72
2022-11-27T17:11:44.782Z,98821.78
2022-11-27T17:14:11.615Z,98821.63
2022-11-27T17:16:41.205Z,98801.28
2022-11-27T17:19:09.763Z,98803.59
2022-11-27T17:21:36.321Z,98816.97
2022-11-27T17:24:10.161Z,98824.19
2022-11-27T17:26:43.882Z,98819.50
2022-11-27T17:29:14.678Z,98809.38
2022-11-27T17:31:41.868Z,98815.75
2022-11-27T17:34:11.546Z,98806.13
2022-11-27T17:36:38.708Z,98793.97
2022-11-27T17:39:06.253Z,98803.50
2022-11-27T17:41:32.963Z,98798.28
2022-11-27T17:43:59.507Z,98786.31
2022-11-27T17:46:28.697Z,98780.44
2022-11-27T17:48:57.995Z,98784.38
2022-11-27T17:51:25.002Z,98778.97
2022-11-27T17:53:51.403Z,98775.78
2022-11-27T17:56:20.358Z,98776.28
2022-11-27T17:58:47.066Z,98769.50
2022-11-27T18:01:22.610Z,98776.63
2022-11-27T18:03:49.781Z,98768.78
2022-11-27T18:06:18.338Z,98752.59
2022-11-27T18:08:45.973Z,98758.59
2022-11-27T18:11:17.127Z,98746.28
2022-11-27T18:13:43.964Z,98734.94
2022-11-27T18:16:16.066Z,98731.91
2022-11-27T18:18:43.552Z,98721.59
2022-11-27T18:21:18.022Z,98714.06
2022-11-27T18:24:20.584Z,98714.78
2022-11-27T18:27:00.401Z,98713.38
2022-11-27T18:29:20.458Z,98714.63
2022-11-27T18:31:47.751Z,98705.28
2022-11-27T18:34:14.343Z,98705.53
2022-11-27T18:36:42.185Z,98702.47
2022-11-27T18:39:09.128Z,98705.50
2022-11-27T18:41:36.587Z,98700.09
2022-11-27T18:44:04.302Z,98683.19
2022-11-27T18:46:30.962Z,98685.50
2022-11-27T18:48:57.638Z,98682.38
2022-11-27T18:51:25.389Z,98678.41
2022-11-27T18:53:52.884Z,98670.94
2022-11-27T18:56:22.640Z,98664.75
2022-11-27T18:58:50.157Z,98661.69
2022-11-27T19:01:25.222Z,98664.31
2022-11-27T19:03:52.496Z,98662.00
2022-11-27T19:06:20.635Z,98671.47
2022-11-27T19:08:47.464Z,98662.44
2022-11-27T19:11:19.918Z,98651.50
2022-11-27T19:13:46.927Z,98652.34
2022-11-27T19:16:20.131Z,98654.72
2022-11-27T19:18:46.906Z,98652.41
2022-11-27T19:21:16.300Z,98654.81
2022-11-27T19:23:43.019Z,98654.06
2022-11-27T19:26:12.612Z,98650.22
2022-11-27T19:28:40.282Z,98638.28
2022-11-27T19:31:09.344Z,98645.75
2022-11-27T19:33:36.822Z,98642.63
2022-11-27T19:36:06.874Z,98628.97
2022-11-27T19:38:33.353Z,98627.25
2022-11-27T19:40:59.929Z,98626.28
2022-11-27T19:43:26.736Z,98616.78
2022-11-27T19:45:53.413Z,98609.47
2022-11-27T19:48:23.428Z,98610.28
2022-11-27T19:50:51.655Z,98589.69
2022-11-27T19:53:18.930Z,98579.63
2022-11-27T19:55:53.084Z,98585.16
2022-11-27T19:58:19.648Z,98561.25
2022-11-27T20:00:46.209Z,98568.13
2022-11-27T20:03:12.805Z,98563.59
2022-11-27T20:05:39.347Z,98580.38
2022-11-27T20:08:05.855Z,98576.91
2022-11-27T20:10:32.525Z,98579.06
2022-11-27T20:13:02.521Z,98581.88
2022-11-27T20:15:29.627Z,98591.75
2022-11-27T20:17:56.172Z,98583.81
2022-11-27T20:20:22.739Z,98598.28
2022-11-27T20:22:50.332Z,98598.28
2022-11-27T20:25:19.824Z,98593.91
2022-11-27T20:27:46.991Z,98595.22
2022-11-27T20:30:13.906Z,98599.56
2022-11-27T20:32:40.357Z,98606.03
2022-11-27T20:35:07.091Z,98605.44
2022-11-27T20:37:34.017Z,98599.41
2022-11-27T20:40:00.643Z,98585.66
2022-11-27T20:42:27.183Z,98583.06
2022-11-27T20:44:53.671Z,98572.22
2022-11-27T20:47:20.119Z,98565.78
2022-11-27T20:49:46.728Z,98562.94
2022-11-27T20:52:14.549Z,98571.16
2022-11-27T20:54:41.159Z,98562.91
2022-11-27T20:57:13.906Z,98568.28
2022-11-27T20:59:41.406Z,98568.44
2022-11-27T21:02:11.719Z,98560.25
2022-11-27T21:04:38.465Z,98564.06
2022-11-27T21:07:05.325Z,98561.78
2022-11-27T21:09:32.081Z,98561.53
2022-11-27T21:11:58.655Z,98556.00
2022-11-27T21:14:25.297Z,98556.13
2022-11-27T21:16:52.027Z,98568.22
2022-11-27T21:19:26.773Z,98570.94
2022-11-27T21:21:54.413Z,98555.41
2022-11-27T21:24:22.457Z,98544.66
2022-11-27T21:26:49.293Z,98542.03
2022-11-27T21:29:16.188Z,98538.03
2022-11-27T21:31:46.821Z,98541.25
2022-11-27T21:34:13.913Z,98534.63
2022-11-27T21:36:40.521Z,98511.03
2022-11-27T21:39:09.292Z,98509.28
2022-11-27T21:41:36.539Z,98510.19
2022-11-27T21:44:04.415Z,98516.22
2022-11-27T21:46:31.014Z,98517.31
2022-11-27T21:48:59.592Z,98529.31
2022-11-27T21:51:27.194Z,98527.47
2022-11-27T21:53:55.357Z,98524.91
2022-11-27T21:56:23.906Z,98527.53
2022-11-27T21:58:50.715Z,98529.53
2022-11-27T22:01:21.220Z,98520.72
2022-11-27T22:03:50.164Z,98507.00
2022-11-27T22:06:18.237Z,98496.00
2022-11-27T22:08:46.854Z,98503.63
2022-11-27T22:11:21.304Z,98496.03
2022-11-27T22:13:48.043Z,98495.91
2022-11-27T22:16:21.135Z,98489.03
2022-11-27T22:18:49.087Z,98489.81
2022-11-27T22:21:16.553Z,98486.72
2022-11-27T22:23:43.628Z,98488.63
2022-11-27T22:26:13.027Z,98485.72
2022-11-27T22:28:39.893Z,98487.78
2022-11-27T22:31:29.638Z,98488.56
2022-11-27T22:33:57.019Z,98495.06
2022-11-27T22:36:27.952Z,98480.25
2022-11-27T22:38:55.296Z,98489.22
2022-11-27T22:41:24.956Z,98490.47
2022-11-27T22:43:52.164Z,98486.28
2022-11-27T22:46:28.096Z,98486.81
2022-11-27T22:48:58.838Z,98497.75
2022-11-27T22:51:26.766Z,98489.34
2022-11-27T22:53:53.391Z,98487.28
2022-11-27T22:56:19.953Z,98484.88
2022-11-27T22:58:46.713Z,98478.22
2022-11-27T23:01:19.399Z,98478.38
2022-11-27T23:03:46.026Z,98469.81
2022-11-27T23:06:15.116Z,98466.41
2022-11-27T23:08:43.429Z,98466.53
2022-11-27T23:11:13.955Z,98463.75
2022-11-27T23:13:44.978Z,98462.09
2022-11-27T23:16:14.987Z,98456.88
2022-11-27T23:18:41.506Z,98457.34
2022-11-27T23:21:14.192Z,98442.75
2022-11-27T23:23:40.769Z,98436.28
2022-11-27T23:26:17.568Z,98432.44
2022-11-27T23:28:45.313Z,98443.19
2022-11-27T23:31:29.858Z,98437.00
2022-11-27T23:33:57.281Z,98435.19
2022-11-27T23:36:23.787Z,98438.72
2022-11-27T23:38:50.416Z,98438.22
2022-11-27T23:41:25.306Z,98427.75
2022-11-27T23:43:53.460Z,98424.97
2022-11-27T23:46:22.499Z,98413.34
2022-11-27T23:48:49.274Z,98426.16
2022-11-27T23:51:21.491Z,98431.28
2022-11-27T23:53:50.541Z,98426.25
2022-11-27T23:56:19.805Z,98421.78
2022-11-27T23:58:47.508Z,98427.16
